Airfield :
LOGIN :

Register | Disclaimer

   EN    FR    IT 

 










Legend :    VFR   Marginal VFR   IFR   Intensive IFR   Very Intensive IFR
Visi :
Ceiling :
>= 8 km
>= 3000ft
5 to 8 km
1000 to 3000 ft
1500m to 5 km
500 to 1000 ft
800 to 1500m
200 to 500 ft
< 800m
< 200 ft
Symbols :   Thunderstorms  Fog  Heavy snow  Heavy precipitations  Wind > 20 kt
SIGMETs :     Misc.  Thunderstorms  Icing  Turbulence  Mountain Waves  Volcanic Ashes






- Airport Elevation : 1400 ft


LSME - Luzern Emmen

CURRENT METAR :
  • 280750Z VRB02KT 6000 RA BR FEW010 OVC040 02/01 Q1011 RMK WHT

EXPIRED METARs :
  • 280720Z VRB01KT 6000 -RA BR FEW010 SCT040 OVC055 01/01 Q1011 RMK WHT
  • 280650Z 23003KT 3500 -RA BR SCT005 BKN036 OVC043 01/01 Q1011 RMK YLO
  • 280620Z 24005KT 4000 -RA FEW025 BKN037 OVC045 02/01 Q1012 RMK GRN
  • 280550Z 24004KT 5000 -RA BR FEW027 OVC041 02/02 Q1012 RMK WHT
  • 280520Z AUTO VRB02KT 4100NDV -RA BR FEW005 BKN040 02/01 Q1013 RMK

Expired Forecast.



MET'MAP, your aeronautical weather chart ! - Copyright ORBIFLY December 2007 - Disclaimer

ORBIFLY MET'MAP TEAM :

Programming & Development : Alexandra Zaïnal
Concept & original design : Baudouin d'Aumeries
Assistance for programming : Marc-Olivier Méhu
Technical & hardware support : Manuel Goepfert

Contact : metmap@orbifly.com




SOURCES & CREDITS :

   NOAA